Time;durP1;ratioP1;P1;durP2;ratioP2;P2;SDS_P1;SDS_P2;PMS_P1;PMS_P2;Temp;Humidity;BMP_temperature;BMP_pressure;BME280_temperature;BME280_humidity;BME280_pressure;Samples;Min_cycle;Max_cycle;Signal;HPM_P1;HPM_P2
2021/10/12 00:00:14;;;;;;;50.50;30.30;;;;;;;7.77;100.00;96891.16;4936563;28;20124;-79
2021/10/12 00:02:40;;;;;;;45.70;30.73;;;;;;;7.82;100.00;96888.19;4952452;28;20015;-78
2021/10/12 00:05:06;;;;;;;53.57;31.17;;;;;;;7.82;100.00;96893.41;4951930;28;20070;-78
2021/10/12 00:07:32;;;;;;;49.43;32.07;;;;;;;7.87;100.00;96890.41;4934532;28;20442;-78
2021/10/12 00:09:58;;;;;;;58.07;32.60;;;;;;;7.89;100.00;96891.13;4936162;28;20027;-78
2021/10/12 00:12:28;;;;;;;55.53;33.73;;;;;;;7.86;100.00;96888.75;4951777;28;20040;-78
2021/10/12 00:14:53;;;;;;;59.50;35.33;;;;;;;7.89;100.00;96880.66;4944846;28;20476;-78
2021/10/12 00:17:19;;;;;;;55.13;33.80;;;;;;;7.91;100.00;96883.94;4944100;28;20119;-79
2021/10/12 00:19:45;;;;;;;54.00;32.97;;;;;;;7.86;100.00;96894.81;4935810;28;20362;-78
2021/10/12 00:22:11;;;;;;;56.03;35.77;;;;;;;7.88;100.00;96884.19;4966705;28;20105;-78
2021/10/12 00:24:38;;;;;;;57.03;36.33;;;;;;;7.87;100.00;96870.28;4947547;28;20066;-78
2021/10/12 00:27:04;;;;;;;62.20;37.03;;;;;;;7.80;100.00;96883.06;4937336;28;20023;-78
2021/10/12 00:29:30;;;;;;;59.97;37.70;;;;;;;7.84;100.00;96881.00;4934368;28;20071;-78
2021/10/12 00:31:56;;;;;;;58.07;36.73;;;;;;;7.87;100.00;96879.94;4952971;28;20050;-78
2021/10/12 00:34:22;;;;;;;58.53;36.50;;;;;;;7.85;100.00;96880.06;4936797;29;20049;-78
2021/10/12 00:36:47;;;;;;;55.17;33.90;;;;;;;7.83;100.00;96878.53;4957971;28;20362;-79
2021/10/12 00:39:15;;;;;;;65.47;38.43;;;;;;;7.84;100.00;96881.00;4959575;28;20050;-78
2021/10/12 00:41:41;;;;;;;56.23;36.83;;;;;;;7.89;100.00;96868.38;4976476;28;20504;-78
2021/10/12 00:44:08;;;;;;;59.47;37.00;;;;;;;7.88;100.00;96865.88;4943385;28;20039;-78
2021/10/12 00:46:34;;;;;;;63.00;37.40;;;;;;;7.90;100.00;96875.28;4951756;28;20030;-78
2021/10/12 00:49:00;;;;;;;63.40;38.27;;;;;;;7.96;100.00;96864.28;4959234;28;20074;-78
2021/10/12 00:51:27;;;;;;;59.63;37.87;;;;;;;7.98;100.00;96862.38;4954584;28;20046;-78
2021/10/12 00:53:53;;;;;;;66.07;41.60;;;;;;;7.97;100.00;96857.25;4938588;28;20034;-78
2021/10/12 00:56:20;;;;;;;68.10;39.73;;;;;;;7.87;100.00;96851.94;4942443;28;20039;-78
2021/10/12 00:58:48;;;;;;;58.57;36.53;;;;;;;7.87;100.00;96856.38;4957641;28;20069;-78
2021/10/12 01:01:14;;;;;;;58.63;36.70;;;;;;;7.95;100.00;96853.97;4939261;29;20024;-78
2021/10/12 01:03:40;;;;;;;58.30;37.43;;;;;;;7.84;100.00;96848.75;4969580;28;20138;-78
2021/10/12 01:06:06;;;;;;;60.83;38.50;;;;;;;7.83;100.00;96844.50;4957727;28;20114;-78
2021/10/12 01:08:33;;;;;;;64.53;38.40;;;;;;;7.85;100.00;96839.97;4958856;28;20039;-78
2021/10/12 01:10:59;;;;;;;60.37;35.77;;;;;;;7.78;100.00;96850.13;4943018;28;20023;-78
2021/10/12 01:13:26;;;;;;;64.77;38.50;;;;;;;7.77;100.00;96838.78;4951065;28;20058;-78
2021/10/12 01:15:52;;;;;;;61.10;37.33;;;;;;;7.78;100.00;96835.22;4976208;28;20485;-78
2021/10/12 01:18:21;;;;;;;60.67;37.17;;;;;;;7.74;100.00;96830.34;4943055;28;20172;-78
2021/10/12 01:20:51;;;;;;;58.13;36.50;;;;;;;7.72;100.00;96835.75;4938021;28;20030;-78
2021/10/12 01:23:19;;;;;;;62.87;37.10;;;;;;;7.74;100.00;96827.75;4958758;28;20035;-78
2021/10/12 01:25:45;;;;;;;61.57;36.47;;;;;;;7.87;100.00;96827.56;4958233;28;20085;-78
2021/10/12 01:28:11;;;;;;;61.40;38.13;;;;;;;7.76;100.00;96823.22;4942701;28;20031;-78
2021/10/12 01:30:38;;;;;;;57.47;37.80;;;;;;;7.78;100.00;96824.75;4942632;28;20492;-78
2021/10/12 01:33:06;;;;;;;58.23;36.27;;;;;;;7.74;100.00;96825.94;4959347;28;20035;-78
2021/10/12 01:35:32;;;;;;;57.97;36.83;;;;;;;7.74;100.00;96825.13;4957683;28;20045;-77
2021/10/12 01:37:57;;;;;;;62.33;36.63;;;;;;;7.84;100.00;96818.16;4976794;28;20481;-79
2021/10/12 01:40:23;;;;;;;61.77;38.67;;;;;;;7.70;100.00;96816.69;4958495;28;20041;-78
2021/10/12 01:42:49;;;;;;;61.27;37.97;;;;;;;7.64;100.00;96817.19;4956183;28;20041;-78
2021/10/12 01:45:15;;;;;;;64.67;39.10;;;;;;;7.63;100.00;96823.41;4941636;28;20113;-78
2021/10/12 01:47:42;;;;;;;62.37;38.80;;;;;;;7.67;100.00;96822.19;4953978;28;20042;-78
2021/10/12 01:50:11;;;;;;;63.27;38.93;;;;;;;7.67;100.00;96816.13;4954349;28;20023;-78
2021/10/12 01:52:37;;;;;;;61.53;38.30;;;;;;;7.73;100.00;96823.47;4937028;28;20035;-78
2021/10/12 01:55:09;;;;;;;61.73;37.77;;;;;;;7.74;100.00;96822.50;4955495;28;20141;-78
2021/10/12 01:57:35;;;;;;;62.40;38.30;;;;;;;7.72;100.00;96812.19;4955170;28;20678;-78
2021/10/12 02:00:03;;;;;;;63.10;38.13;;;;;;;7.75;100.00;96809.31;4955443;28;20750;-78
2021/10/12 02:02:37;;;;;;;56.40;36.07;;;;;;;7.80;100.00;96806.28;4975493;28;20043;-78
2021/10/12 02:05:03;;;;;;;56.67;35.73;;;;;;;7.70;100.00;96811.47;4957020;28;20026;-78
2021/10/12 02:07:29;;;;;;;59.63;36.50;;;;;;;7.67;100.00;96803.84;4950172;28;20512;-78
2021/10/12 02:09:55;;;;;;;57.20;36.27;;;;;;;7.65;100.00;96804.97;4941799;28;20038;-78
2021/10/12 02:12:30;;;;;;;67.87;38.40;;;;;;;7.60;100.00;96805.31;4938026;29;20055;-77
2021/10/12 02:14:57;;;;;;;64.17;39.10;;;;;;;7.63;100.00;96794.59;4950595;28;20035;-78
2021/10/12 02:17:22;;;;;;;62.77;36.70;;;;;;;7.68;100.00;96781.13;4957830;28;20114;-78
2021/10/12 02:19:49;;;;;;;53.53;37.00;;;;;;;7.71;100.00;96776.50;4941228;28;20126;-78
2021/10/12 02:22:15;;;;;;;54.27;36.00;;;;;;;7.72;100.00;96761.59;4934028;28;20019;-78
2021/10/12 02:24:40;;;;;;;61.73;36.67;;;;;;;7.71;100.00;96759.94;4944477;28;20041;-78
2021/10/12 02:27:06;;;;;;;62.90;38.87;;;;;;;7.67;100.00;96769.00;4941487;28;20472;-78
2021/10/12 02:29:32;;;;;;;61.43;36.43;;;;;;;7.65;100.00;96769.16;4955321;28;20117;-78
2021/10/12 02:31:58;;;;;;;58.00;36.80;;;;;;;7.59;100.00;96758.34;4932144;28;20023;-78
2021/10/12 02:34:23;;;;;;;62.70;38.07;;;;;;;7.57;100.00;96761.09;4945555;29;20035;-78
2021/10/12 02:36:49;;;;;;;59.97;38.47;;;;;;;7.60;100.00;96755.59;4950553;28;20034;-78
2021/10/12 02:39:15;;;;;;;65.23;38.80;;;;;;;7.53;100.00;96763.13;4954638;28;20027;-79
2021/10/12 02:41:40;;;;;;;59.80;36.63;;;;;;;7.60;100.00;96763.44;4942165;28;20027;-78
2021/10/12 02:44:07;;;;;;;60.17;36.90;;;;;;;7.61;100.00;96759.88;4940791;28;20064;-78
2021/10/12 02:46:33;;;;;;;59.53;36.77;;;;;;;7.61;100.00;96753.81;4953000;28;20140;-78
2021/10/12 02:49:29;;;;;;;59.07;35.17;;;;;;;7.66;100.00;96746.41;4956206;28;20031;-78
2021/10/12 02:51:55;;;;;;;55.73;35.23;;;;;;;7.63;100.00;96737.03;4955863;28;20018;-77
2021/10/12 02:54:21;;;;;;;61.80;38.23;;;;;;;7.57;100.00;96742.75;4974445;28;20170;-78
2021/10/12 02:56:47;;;;;;;55.63;36.20;;;;;;;7.55;100.00;96734.22;4965185;28;20030;-77
2021/10/12 02:59:12;;;;;;;57.97;37.00;;;;;;;7.55;100.00;96731.59;4956785;28;20026;-78
2021/10/12 03:01:38;;;;;;;61.13;38.50;;;;;;;7.54;100.00;96728.16;4940772;28;20066;-78
2021/10/12 03:04:04;;;;;;;60.40;38.00;;;;;;;7.50;100.00;96733.75;4950844;28;20077;-78
2021/10/12 03:06:30;;;;;;;65.17;36.83;;;;;;;7.57;100.00;96719.19;4959195;28;20074;-77
2021/10/12 03:08:55;;;;;;;60.40;36.00;;;;;;;7.47;100.00;96711.28;4972549;28;20054;-78
2021/10/12 03:11:21;;;;;;;59.77;35.10;;;;;;;7.53;100.00;96704.72;4937359;28;20045;-79
2021/10/12 03:13:47;;;;;;;60.87;37.40;;;;;;;7.49;100.00;96713.78;4954414;28;20134;-78
2021/10/12 03:16:13;;;;;;;60.60;36.87;;;;;;;7.43;100.00;96711.69;4971429;28;20434;-78
2021/10/12 03:18:38;;;;;;;62.50;38.63;;;;;;;7.40;100.00;96699.69;4946508;28;21028;-78
2021/10/12 03:21:05;;;;;;;61.87;38.03;;;;;;;7.44;100.00;96702.88;4939989;29;20031;-78
2021/10/12 03:23:31;;;;;;;67.73;37.00;;;;;;;7.38;100.00;96706.84;4950944;28;20057;-78
2021/10/12 03:25:57;;;;;;;56.20;35.83;;;;;;;7.39;100.00;96710.28;4971080;28;20062;-78
2021/10/12 03:28:23;;;;;;;59.23;36.07;;;;;;;7.46;100.00;96695.72;4936495;28;20030;-79
2021/10/12 03:30:49;;;;;;;61.73;35.97;;;;;;;7.47;100.00;96692.16;4953346;28;20035;-78
2021/10/12 03:33:15;;;;;;;63.53;37.70;;;;;;;7.42;100.00;96684.69;4938386;28;20069;-77
2021/10/12 03:35:47;;;;;;;60.10;36.80;;;;;;;7.46;100.00;96685.25;4937606;28;20058;-78
2021/10/12 03:38:13;;;;;;;57.07;34.67;;;;;;;7.43;100.00;96688.97;4954504;28;20027;-78
2021/10/12 03:40:39;;;;;;;61.80;36.60;;;;;;;7.39;100.00;96691.97;4954671;28;20026;-78
2021/10/12 03:43:04;;;;;;;67.20;36.53;;;;;;;7.36;100.00;96687.81;4938188;28;20041;-78
2021/10/12 03:45:30;;;;;;;58.43;34.23;;;;;;;7.32;100.00;96681.19;4937772;28;20541;-78
2021/10/12 03:47:57;;;;;;;58.83;34.37;;;;;;;7.32;100.00;96681.19;4950460;29;20043;-78
2021/10/12 03:50:23;;;;;;;50.10;34.23;;;;;;;7.31;100.00;96677.75;4954009;28;20026;-78
2021/10/12 03:52:49;;;;;;;53.90;35.20;;;;;;;7.26;100.00;96673.84;4953807;28;20102;-79
2021/10/12 03:55:16;;;;;;;54.57;33.20;;;;;;;7.29;100.00;96669.19;4952581;28;20034;-79
2021/10/12 03:57:42;;;;;;;53.47;33.57;;;;;;;7.32;100.00;96666.31;4939302;28;20893;-78
2021/10/12 04:00:08;;;;;;;54.73;32.73;;;;;;;7.35;100.00;96659.19;4953565;28;20060;-78
2021/10/12 04:02:35;;;;;;;62.67;35.50;;;;;;;7.40;100.00;96670.06;4952771;28;20034;-78
2021/10/12 04:05:02;;;;;;;59.10;34.10;;;;;;;7.32;100.00;96665.50;4945257;28;20068;-78
2021/10/12 04:07:28;;;;;;;56.50;34.87;;;;;;;7.31;100.00;96675.13;4959410;28;20030;-79
2021/10/12 04:09:54;;;;;;;62.40;33.13;;;;;;;7.36;100.00;96666.88;4939284;28;20118;-78
2021/10/12 04:12:20;;;;;;;56.37;34.23;;;;;;;7.39;100.00;96665.81;4938289;28;20062;-78
2021/10/12 04:14:46;;;;;;;54.27;31.10;;;;;;;7.47;100.00;96669.41;4936873;28;20033;-77
2021/10/12 04:17:12;;;;;;;55.43;33.47;;;;;;;7.56;100.00;96662.59;4951318;28;20093;-78
2021/10/12 04:19:38;;;;;;;57.70;34.13;;;;;;;7.61;100.00;96664.81;4970921;28;20038;-78
2021/10/12 04:22:04;;;;;;;53.57;32.00;;;;;;;7.63;100.00;96662.91;4933483;28;20031;-78
2021/10/12 04:24:29;;;;;;;53.70;31.97;;;;;;;7.65;100.00;96672.28;4950704;28;20405;-78
2021/10/12 04:26:56;;;;;;;52.23;33.07;;;;;;;7.60;100.00;96671.00;4970797;28;20113;-78
2021/10/12 04:29:43;;;;;;;57.73;32.17;;;;;;;7.61;100.00;96670.88;4952998;28;20035;-78
2021/10/12 04:32:11;;;;;;;54.10;32.33;;;;;;;7.63;100.00;96663.72;4936535;28;20038;-78
2021/10/12 04:34:37;;;;;;;54.03;32.17;;;;;;;7.66;100.00;96668.69;4935279;28;20027;-83
2021/10/12 04:37:16;;;;;;;54.03;33.70;;;;;;;7.64;100.00;96660.13;4938070;28;20035;-77
2021/10/12 04:39:42;;;;;;;53.47;32.43;;;;;;;7.65;100.00;96661.81;4968255;28;20122;-84
2021/10/12 04:42:08;;;;;;;52.57;31.53;;;;;;;7.67;100.00;96665.13;4954075;28;20573;-83
2021/10/12 04:44:40;;;;;;;53.13;31.43;;;;;;;7.62;100.00;96662.06;4952922;28;20065;-83
2021/10/12 04:47:05;;;;;;;46.90;31.07;;;;;;;7.64;100.00;96660.13;4970581;28;20038;-83
2021/10/12 04:49:31;;;;;;;47.07;29.00;;;;;;;7.61;100.00;96657.78;4943786;28;20028;-84
2021/10/12 04:52:16;;;;;;;50.40;30.80;;;;;;;7.64;100.00;96652.28;4949847;28;20039;-84
2021/10/12 04:54:46;;;;;;;54.10;31.37;;;;;;;7.60;100.00;96653.50;4969384;28;20525;-84
2021/10/12 04:57:15;;;;;;;50.73;30.07;;;;;;;7.64;100.00;96652.28;4937954;28;20043;-83
2021/10/12 04:59:44;;;;;;;48.47;28.73;;;;;;;7.63;100.00;96642.78;4953812;28;20034;-84
2021/10/12 05:02:20;;;;;;;53.13;28.60;;;;;;;7.53;100.00;96647.16;4937346;28;20101;-84
2021/10/12 05:04:58;;;;;;;46.10;29.30;;;;;;;7.55;100.00;96640.00;4970104;28;20050;-83
2021/10/12 05:07:24;;;;;;;47.40;30.03;;;;;;;7.48;100.00;96644.94;4934955;28;20046;-83
2021/10/12 05:09:49;;;;;;;52.23;30.37;;;;;;;7.53;100.00;96642.72;4953417;28;20023;-83
2021/10/12 05:12:19;;;;;;;54.10;30.57;;;;;;;7.53;100.00;96632.28;4930663;29;20031;-83
2021/10/12 05:14:45;;;;;;;53.27;31.27;;;;;;;7.52;100.00;96635.03;4953548;28;20396;-83
2021/10/12 05:17:46;;;;;;;54.23;30.67;;;;;;;7.50;100.00;96639.56;4935048;29;20502;-84
2021/10/12 05:20:04;;;;;;;51.40;31.40;;;;;;;7.50;100.00;96634.31;4951529;28;20057;-85
2021/10/12 05:22:30;;;;;;;51.67;31.50;;;;;;;7.52;100.00;96625.38;4942521;28;20173;-84
2021/10/12 05:24:56;;;;;;;53.37;31.20;;;;;;;7.51;100.00;96635.97;4956707;28;20042;-83
2021/10/12 05:27:21;;;;;;;50.83;30.97;;;;;;;7.55;100.00;96630.38;4941397;28;20037;-83
2021/10/12 05:29:47;;;;;;;53.43;31.83;;;;;;;7.40;100.00;96630.81;4937874;29;20039;-83
2021/10/12 05:32:16;;;;;;;53.50;31.90;;;;;;;7.51;100.00;96626.34;4938703;28;20038;-83
2021/10/12 05:34:42;;;;;;;56.60;31.33;;;;;;;7.50;100.00;96626.47;4956669;28;20054;-83
2021/10/12 05:37:08;;;;;;;57.43;35.33;;;;;;;7.56;100.00;96623.34;4940849;28;20039;-83
2021/10/12 05:39:34;;;;;;;55.37;31.43;;;;;;;7.52;100.00;96629.78;4957189;28;20027;-83
2021/10/12 05:41:59;;;;;;;52.27;30.23;;;;;;;7.44;100.00;96621.75;4958090;28;20039;-83
2021/10/12 05:44:25;;;;;;;47.73;29.40;;;;;;;7.40;100.00;96630.81;4944997;28;20089;-83
2021/10/12 05:46:51;;;;;;;49.90;30.27;;;;;;;7.35;100.00;96636.47;4955319;28;20038;-83
2021/10/12 05:49:16;;;;;;;50.50;30.57;;;;;;;7.33;100.00;96633.94;4956553;28;20116;-83
2021/10/12 05:51:45;;;;;;;50.73;30.40;;;;;;;7.38;100.00;96636.19;4953339;28;20036;-83
2021/10/12 05:54:15;;;;;;;46.90;30.03;;;;;;;7.48;100.00;96641.50;4955341;28;20023;-83
2021/10/12 05:56:45;;;;;;;55.47;31.13;;;;;;;7.40;100.00;96634.25;4953068;28;20046;-84
2021/10/12 05:59:11;;;;;;;49.30;28.23;;;;;;;7.41;100.00;96633.31;4956891;28;20031;-83
2021/10/12 06:01:40;;;;;;;47.63;28.87;;;;;;;7.40;100.00;96633.44;4956641;28;20025;-83
2021/10/12 06:04:10;;;;;;;49.93;28.00;;;;;;;7.33;100.00;96639.19;4940890;28;20031;-83
2021/10/12 06:06:36;;;;;;;46.90;27.37;;;;;;;7.38;100.00;96638.81;4957956;28;20037;-83
2021/10/12 06:09:03;;;;;;;48.77;27.27;;;;;;;7.42;100.00;96639.38;4956446;28;20035;-83
2021/10/12 06:11:29;;;;;;;49.47;28.23;;;;;;;7.42;100.00;96647.25;4956194;28;20161;-83
2021/10/12 06:13:56;;;;;;;44.20;28.17;;;;;;;7.40;100.00;96643.91;4941152;28;20114;-83
2021/10/12 06:16:25;;;;;;;52.20;29.57;;;;;;;7.39;100.00;96639.66;4956682;28;20039;-83
2021/10/12 06:18:51;;;;;;;47.83;27.37;;;;;;;7.39;100.00;96640.47;4948798;28;20019;-83
2021/10/12 06:21:16;;;;;;;44.53;25.90;;;;;;;7.36;100.00;96643.34;4939020;28;20093;-85
2021/10/12 06:23:42;;;;;;;46.27;27.90;;;;;;;7.48;100.00;96637.06;4956903;28;20105;-85
2021/10/12 06:26:25;;;;;;;49.90;28.73;;;;;;;7.53;100.00;96632.28;4939852;28;20043;-85
2021/10/12 06:28:51;;;;;;;45.53;27.65;;;;;;;7.55;100.00;96640.84;4948601;28;20035;-85
2021/10/12 06:31:17;;;;;;;42.67;26.30;;;;;;;7.50;100.00;96637.75;4956175;28;20401;-85
2021/10/12 06:33:42;;;;;;;39.87;24.83;;;;;;;7.59;100.00;96640.56;4938900;28;20039;-85
2021/10/12 06:36:23;;;;;;;39.60;24.53;;;;;;;7.51;100.00;96642.06;4947176;28;20030;-85
2021/10/12 06:38:49;;;;;;;39.10;23.63;;;;;;;7.40;100.00;96641.28;4954211;28;20401;-85
2021/10/12 06:41:15;;;;;;;34.87;22.67;;;;;;;7.38;100.00;96641.44;4939914;28;20045;-85
2021/10/12 06:43:41;;;;;;;38.27;22.97;;;;;;;7.49;100.00;96643.13;4965596;28;20034;-86
2021/10/12 06:46:07;;;;;;;33.60;21.10;;;;;;;7.49;100.00;96643.13;4956285;28;20107;-86
2021/10/12 06:48:33;;;;;;;38.10;22.57;;;;;;;7.53;100.00;96637.50;4949400;28;20043;-85
2021/10/12 06:50:58;;;;;;;36.93;22.80;;;;;;;7.56;100.00;96631.19;4947816;28;20035;-85
2021/10/12 06:53:24;;;;;;;35.60;21.93;;;;;;;7.57;100.00;96635.44;4947628;28;20042;-86
2021/10/12 06:55:50;;;;;;;33.10;21.83;;;;;;;7.56;100.00;96631.19;4933488;28;20022;-86
2021/10/12 06:58:16;;;;;;;34.53;21.50;;;;;;;7.56;100.00;96633.81;4973397;28;20031;-85
2021/10/12 07:00:42;;;;;;;32.70;20.57;;;;;;;7.62;100.00;96641.13;4956069;28;20023;-85
2021/10/12 07:03:14;;;;;;;32.33;20.73;;;;;;;7.62;100.00;96640.31;4949856;28;20031;-86
2021/10/12 07:05:40;;;;;;;23.67;15.27;;;;;;;7.74;100.00;96634.84;4954569;28;20031;-86
2021/10/12 07:08:07;;;;;;;34.83;21.73;;;;;;;7.73;100.00;96633.19;4955094;28;20049;-86
2021/10/12 07:10:32;;;;;;;35.50;20.83;;;;;;;7.72;100.00;96636.78;4940314;28;20113;-85
2021/10/12 07:13:09;;;;;;;35.57;22.50;;;;;;;7.66;100.00;96632.06;4935514;28;20031;-85
2021/10/12 07:15:51;;;;;;;33.60;20.87;;;;;;;7.59;100.00;96641.41;4953607;28;20039;-85
2021/10/12 07:18:18;;;;;;;31.50;19.80;;;;;;;7.69;100.00;96628.34;4951932;29;20065;-85
2021/10/12 07:20:43;;;;;;;33.00;21.40;;;;;;;7.74;100.00;96639.25;4938493;28;20034;-86
2021/10/12 07:23:17;;;;;;;34.10;22.80;;;;;;;7.70;100.00;96635.25;4960996;28;20097;-85
2021/10/12 07:25:47;;;;;;;33.22;20.83;;;;;;;7.83;100.00;96645.50;4957071;28;20405;-86
2021/10/12 07:28:13;;;;;;;31.47;21.63;;;;;;;7.88;100.00;96640.66;4955758;28;20049;-85
2021/10/12 07:30:39;;;;;;;34.17;19.67;;;;;;;7.99;100.00;96637.97;4955228;28;20034;-85
2021/10/12 07:33:05;;;;;;;30.80;20.17;;;;;;;8.01;100.00;96641.28;4936440;29;20531;-85
2021/10/12 07:35:30;;;;;;;31.87;19.73;;;;;;;8.10;100.00;96643.09;4947802;28;20026;-85
2021/10/12 07:37:56;;;;;;;34.93;22.67;;;;;;;8.19;100.00;96639.69;4972304;28;20509;-85
2021/10/12 07:40:22;;;;;;;28.43;18.93;;;;;;;8.20;100.00;96638.72;4951150;29;20090;-85
2021/10/12 07:42:48;;;;;;;27.63;19.27;;;;;;;8.19;100.00;96638.84;4954460;28;20030;-85
2021/10/12 07:45:14;;;;;;;31.13;20.10;;;;;;;8.18;100.00;96637.19;4935178;29;20031;-85
2021/10/12 07:47:39;;;;;;;30.17;19.00;;;;;;;8.03;100.00;96636.75;4936015;28;20032;-85
2021/10/12 07:50:06;;;;;;;25.67;17.37;;;;;;;8.07;100.00;96638.13;4938444;28;20062;-85
2021/10/12 07:52:33;;;;;;;27.23;19.03;;;;;;;8.10;100.00;96640.47;4939256;28;20625;-85
2021/10/12 07:57:45;;;;;;;26.87;17.23;;;;;;;7.87;100.00;96632.00;4920626;29;20066;-85
2021/10/12 08:00:25;;;;;;;25.97;18.33;;;;;;;7.91;100.00;96636.00;4949764;28;20031;-86
2021/10/12 08:02:53;;;;;;;27.37;16.70;;;;;;;7.89;100.00;96634.50;4946625;28;20054;-86
2021/10/12 08:05:21;;;;;;;27.27;17.63;;;;;;;7.87;100.00;96636.41;4934606;28;20035;-84
2021/10/12 08:07:48;;;;;;;27.37;16.83;;;;;;;8.14;100.00;96636.63;4938264;28;20508;-86
2021/10/12 08:10:15;;;;;;;19.07;13.23;;;;;;;8.19;100.00;96626.59;4972290;28;20101;-86
2021/10/12 08:12:42;;;;;;;21.53;13.00;;;;;;;8.24;100.00;96629.59;4936212;28;20039;-86
2021/10/12 08:15:08;;;;;;;19.67;12.40;;;;;;;8.39;100.00;96624.03;4938297;28;20026;-86
2021/10/12 08:17:34;;;;;;;18.17;12.27;;;;;;;8.53;100.00;96623.63;4938896;28;20031;-85
2021/10/12 08:20:00;;;;;;;19.80;12.70;;;;;;;8.56;100.00;96620.72;4942748;28;20081;-85
2021/10/12 08:22:25;;;;;;;23.67;12.90;;;;;;;8.44;100.00;96621.81;4954508;28;20126;-85
2021/10/12 08:24:51;;;;;;;21.80;12.80;;;;;;;8.31;100.00;96627.28;4946110;28;20034;-85
2021/10/12 08:27:17;;;;;;;19.13;12.73;;;;;;;8.44;100.00;96622.63;4938895;28;20070;-85
2021/10/12 08:29:42;;;;;;;19.20;12.83;;;;;;;8.39;100.00;96624.03;4929263;28;20054;-85
2021/10/12 08:32:08;;;;;;;19.17;12.17;;;;;;;8.40;100.00;96621.25;4954903;28;20478;-85
2021/10/12 08:34:34;;;;;;;21.70;13.17;;;;;;;8.49;100.00;96622.25;4942052;28;20028;-85
2021/10/12 08:37:01;;;;;;;17.00;11.57;;;;;;;8.51;100.00;96612.44;4953716;28;20679;-85
2021/10/12 08:39:30;;;;;;;22.87;13.70;;;;;;;8.33;100.00;96619.28;4954505;28;20053;-85
2021/10/12 08:42:07;;;;;;;22.60;13.03;;;;;;;8.37;100.00;96610.19;4938097;28;20057;-85
2021/10/12 08:44:53;;;;;;;23.93;12.57;;;;;;;8.33;100.00;96607.03;4954012;28;20041;-85
2021/10/12 08:47:22;;;;;;;24.93;17.47;;;;;;;8.32;100.00;96607.16;4935297;29;20445;-85
2021/10/12 08:49:48;;;;;;;32.60;20.97;;;;;;;8.26;100.00;96616.38;4953941;28;20070;-85
2021/10/12 08:52:14;;;;;;;24.87;16.13;;;;;;;8.16;100.00;96608.50;4933528;28;20382;-85
2021/10/12 08:54:40;;;;;;;20.73;12.53;;;;;;;8.17;100.00;96602.28;4937891;28;20139;-84
2021/10/12 08:57:05;;;;;;;18.43;12.17;;;;;;;8.15;100.00;96604.25;4958234;28;20037;-85
2021/10/12 08:59:31;;;;;;;25.57;16.40;;;;;;;8.11;100.00;96600.22;4957774;28;20027;-85
2021/10/12 09:01:59;;;;;;;23.03;15.73;;;;;;;8.10;100.00;96595.94;4959242;28;20122;-85
2021/10/12 09:04:37;;;;;;;19.20;13.13;;;;;;;8.27;100.00;96592.66;4959009;28;20033;-85
2021/10/12 09:07:03;;;;;;;19.93;13.10;;;;;;;8.10;100.00;96593.31;4975139;28;20027;-85
2021/10/12 09:09:35;;;;;;;21.07;13.50;;;;;;;8.03;100.00;96592.22;4946943;28;20035;-85
2021/10/12 09:12:02;;;;;;;25.60;14.77;;;;;;;8.03;100.00;96593.03;4942107;28;20695;-85
2021/10/12 09:14:28;;;;;;;20.33;13.23;;;;;;;7.98;100.00;96594.38;4942490;28;20540;-85
2021/10/12 09:17:06;;;;;;;20.53;12.90;;;;;;;8.09;100.00;96591.69;4975911;28;20030;-85
2021/10/12 09:19:34;;;;;;;18.10;12.37;;;;;;;8.12;100.00;96583.56;4945938;28;20035;-85
2021/10/12 09:22:06;;;;;;;19.23;13.30;;;;;;;8.15;100.00;96577.19;4939519;28;20093;-85
2021/10/12 09:24:43;;;;;;;19.00;13.70;;;;;;;8.24;100.00;96571.97;4938265;28;20050;-86
2021/10/12 09:27:10;;;;;;;26.10;17.67;;;;;;;8.07;100.00;96574.44;4949138;28;20062;-86
2021/10/12 09:29:38;;;;;;;24.53;17.97;;;;;;;8.45;100.00;96571.03;4946487;28;20052;-85
2021/10/12 09:32:06;;;;;;;24.00;18.87;;;;;;;8.43;100.00;96565.13;4941877;28;20109;-86
2021/10/12 09:34:34;;;;;;;18.17;14.20;;;;;;;8.39;100.00;96569.00;4957681;28;20042;-86
2021/10/12 09:37:02;;;;;;;38.87;23.00;;;;;;;8.61;100.00;96558.22;4957424;28;20121;-84
2021/10/12 09:39:42;;;;;;;27.93;18.13;;;;;;;8.76;100.00;96561.25;4939723;28;20544;-86
2021/10/12 09:42:21;;;;;;;27.33;17.57;;;;;;;8.72;100.00;96555.47;4947306;28;20042;-85
2021/10/12 09:44:57;;;;;;;25.00;17.17;;;;;;;8.75;100.00;96556.94;4957559;28;20575;-86
2021/10/12 09:47:24;;;;;;;26.40;17.03;;;;;;;8.94;100.00;96548.25;4950005;28;20041;-85
2021/10/12 09:50:09;;;;;;;23.97;15.33;;;;;;;8.78;100.00;96543.56;4938381;28;20166;-85
2021/10/12 09:52:37;;;;;;;21.08;14.80;;;;;;;8.94;100.00;96543.00;4955255;28;20046;-85
2021/10/12 09:55:03;;;;;;;21.30;13.20;;;;;;;8.91;100.00;96532.78;4935129;28;20043;-86
2021/10/12 09:57:32;;;;;;;17.90;12.83;;;;;;;9.02;100.00;96526.53;4952331;28;20031;-86
2021/10/12 09:59:57;;;;;;;18.90;13.97;;;;;;;9.11;100.00;96523.88;4956718;28;20030;-86
2021/10/12 10:02:25;;;;;;;21.87;12.37;;;;;;;9.27;100.00;96517.22;4941941;28;20039;-86
2021/10/12 10:04:53;;;;;;;20.17;13.23;;;;;;;9.27;100.00;96519.84;4948635;28;20054;-86
2021/10/12 10:07:31;;;;;;;19.03;12.97;;;;;;;9.76;100.00;96504.66;4940585;28;20515;-86
2021/10/12 10:10:01;;;;;;;23.53;13.63;;;;;;;9.87;100.00;96507.09;4943188;28;20027;-85
2021/10/12 10:12:27;;;;;;;20.63;14.20;;;;;;;10.01;100.00;96508.41;4955517;28;20027;-86
2021/10/12 10:14:52;;;;;;;24.30;15.00;;;;;;;9.93;100.00;96500.44;4974839;28;20027;-86
2021/10/12 10:17:20;;;;;;;22.60;14.40;;;;;;;9.84;100.00;96504.78;4956573;28;20050;-86
2021/10/12 10:19:47;;;;;;;22.87;14.90;;;;;;;9.79;100.00;96505.22;4955963;28;20061;-86
2021/10/12 10:22:40;;;;;;;19.13;13.57;;;;;;;9.70;100.00;96510.53;4955077;28;20042;-86
2021/10/12 10:25:34;;;;;;;18.05;12.63;;;;;;;9.70;100.00;96506.09;4940484;28;20292;-86
2021/10/12 10:28:25;;;;;;;19.80;11.32;;;;;;;9.51;100.00;96496.53;4929112;28;20088;-87
2021/10/12 10:31:00;;;;;;;17.23;11.13;;;;;;;9.66;100.00;96489.81;4942829;28;20074;-86
2021/10/12 10:33:34;;;;;;;16.53;10.40;;;;;;;9.43;100.00;96499.88;4951120;28;20038;-86
2021/10/12 10:36:07;;;;;;;18.93;11.43;;;;;;;9.59;100.00;96493.16;4958220;28;20093;-86
2021/10/12 10:38:43;;;;;;;15.33;10.40;;;;;;;9.42;100.00;96493.00;4956539;28;20031;-86
2021/10/12 10:41:10;;;;;;;18.20;10.93;;;;;;;9.62;100.00;96482.34;4965957;28;20051;-86
2021/10/12 10:43:49;;;;;;;19.00;10.53;;;;;;;9.63;100.00;96484.84;4951491;28;20027;-77
2021/10/12 10:46:43;;;;;;;15.63;9.30;;;;;;;9.48;100.00;96481.06;4937472;29;20046;-77
2021/10/12 10:49:23;;;;;;;14.33;9.43;;;;;;;9.52;100.00;96474.53;4951006;28;20538;-78
2021/10/12 10:52:04;;;;;;;13.80;9.47;;;;;;;9.51;100.00;96470.25;4953286;28;20031;-78
2021/10/12 10:54:36;;;;;;;14.40;9.47;;;;;;;9.69;100.00;96472.91;4936901;28;20042;-77
2021/10/12 10:57:10;;;;;;;18.07;11.07;;;;;;;9.65;100.00;96472.38;4944333;28;20502;-77
2021/10/12 10:59:36;;;;;;;14.60;9.70;;;;;;;9.75;100.00;96466.25;4951603;28;20042;-78
2021/10/12 11:02:03;;;;;;;16.47;9.70;;;;;;;9.81;100.00;96460.41;4939748;28;20035;-77
2021/10/12 11:04:46;;;;;;;14.53;9.47;;;;;;;9.85;100.00;96457.34;4954647;28;20038;-77
2021/10/12 11:07:21;;;;;;;16.13;9.50;;;;;;;9.80;100.00;96458.78;4938534;28;20190;-77
2021/10/12 11:09:47;;;;;;;16.47;10.67;;;;;;;9.86;100.00;96453.75;4938513;28;20101;-77
2021/10/12 11:12:22;;;;;;;15.30;8.30;;;;;;;9.70;100.00;96453.59;4971660;28;20050;-77
2021/10/12 11:14:53;;;;;;;15.73;11.10;;;;;;;9.54;100.00;96453.41;4937665;28;20413;-77
2021/10/12 11:17:19;;;;;;;20.93;16.00;;;;;;;9.47;100.00;96447.09;4939210;28;20402;-77
2021/10/12 11:19:55;;;;;;;14.43;10.23;;;;;;;9.61;100.00;96446.59;4953719;28;20039;-77
2021/10/12 11:22:21;;;;;;;10.90;8.03;;;;;;;9.75;100.00;96435.56;4937782;28;20042;-78
2021/10/12 11:24:47;;;;;;;13.00;8.47;;;;;;;9.80;100.00;96437.75;4952822;28;20019;-77